Time;durP1;ratioP1;P1;durP2;ratioP2;P2;SDS_P1;SDS_P2;PMS_P1;PMS_P2;Temp;Humidity;BMP_temperature;BMP_pressure;BME280_temperature;BME280_humidity;BME280_pressure;Samples;Min_cycle;Max_cycle;Signal;HPM_P1;HPM_P2
2021/11/09 00:02:08;;;;;;;30.15;8.98;;;7.30;99.90;;;;;;4950424;28;20098;-71
2021/11/09 00:04:38;;;;;;;34.13;9.25;;;7.30;99.90;;;;;;4945989;28;20479;-71
2021/11/09 00:07:23;;;;;;;37.17;10.10;;;7.30;99.90;;;;;;4957731;28;20046;-71
2021/11/09 00:12:23;;;;;;;27.90;7.95;;;7.30;99.90;;;;;;4962187;28;20120;-71
2021/11/09 00:14:49;;;;;;;25.33;8.15;;;7.30;99.90;;;;;;4956983;28;20451;-71
2021/11/09 00:17:15;;;;;;;25.65;8.57;;;7.30;99.90;;;;;;4946251;28;20499;-71
2021/11/09 00:19:41;;;;;;;30.00;9.05;;;7.30;99.90;;;;;;4940010;28;20207;-71
2021/11/09 00:22:06;;;;;;;26.73;8.43;;;7.30;99.90;;;;;;4957696;28;20466;-71
2021/11/09 00:24:32;;;;;;;27.35;8.55;;;7.30;99.90;;;;;;4948842;28;20548;-71
2021/11/09 00:26:57;;;;;;;21.75;8.63;;;7.30;99.90;;;;;;4958366;28;20034;-71
2021/11/09 00:29:23;;;;;;;19.92;8.75;;;7.30;99.90;;;;;;4954164;28;20118;-71
2021/11/09 00:31:48;;;;;;;31.88;9.45;;;7.30;99.90;;;;;;4947553;28;20479;-71
2021/11/09 00:34:14;;;;;;;25.60;8.82;;;7.40;99.90;;;;;;4948912;28;20051;-71
2021/11/09 00:36:39;;;;;;;29.55;8.65;;;7.40;99.90;;;;;;4959207;28;20236;-71
2021/11/09 00:39:07;;;;;;;29.13;8.95;;;7.40;99.90;;;;;;4936618;28;20428;-71
2021/11/09 00:41:32;;;;;;;29.95;8.57;;;7.40;99.90;;;;;;4949054;28;20262;-71
2021/11/09 00:43:58;;;;;;;28.45;8.45;;;7.40;99.90;;;;;;4954206;28;20038;-71
2021/11/09 00:46:24;;;;;;;21.23;8.85;;;7.40;99.90;;;;;;4969765;28;20065;-71
2021/11/09 00:48:49;;;;;;;27.80;9.80;;;7.40;99.90;;;;;;4941777;28;20039;-71
2021/11/09 00:51:14;;;;;;;29.38;8.45;;;7.40;99.90;;;;;;4953705;28;20497;-71
2021/11/09 00:53:40;;;;;;;35.28;8.98;;;7.40;99.90;;;;;;4962065;28;20082;-71
2021/11/09 00:56:07;;;;;;;25.77;8.95;;;7.40;99.90;;;;;;4956268;28;20034;-71
2021/11/09 00:58:32;;;;;;;23.10;8.65;;;7.40;99.90;;;;;;4956759;28;20115;-71
2021/11/09 01:00:58;;;;;;;27.00;8.77;;;7.40;99.90;;;;;;4947460;28;20106;-71
2021/11/09 01:03:23;;;;;;;26.67;8.73;;;7.40;99.90;;;;;;4959285;28;20494;-70
2021/11/09 01:05:49;;;;;;;22.13;8.25;;;7.40;99.90;;;;;;4954040;28;20049;-70
2021/11/09 01:08:17;;;;;;;23.65;8.70;;;7.40;99.90;;;;;;4953118;28;20120;-70
2021/11/09 01:10:49;;;;;;;29.15;8.90;;;7.40;99.90;;;;;;4942965;28;20024;-71
2021/11/09 01:13:16;;;;;;;23.42;8.13;;;7.40;99.90;;;;;;4938426;28;20034;-70
2021/11/09 01:15:49;;;;;;;34.28;9.48;;;7.40;99.90;;;;;;4945580;28;20091;-69
2021/11/09 01:18:27;;;;;;;30.40;8.85;;;7.40;99.90;;;;;;4954578;28;20406;-70
2021/11/09 01:20:54;;;;;;;31.08;8.70;;;7.40;99.80;;;;;;4945090;28;20103;-68
2021/11/09 01:23:20;;;;;;;28.00;7.88;;;7.40;99.90;;;;;;4956833;28;20026;-69
2021/11/09 01:25:46;;;;;;;28.55;9.25;;;7.40;99.90;;;;;;4948856;28;20118;-69
2021/11/09 01:28:12;;;;;;;24.95;8.90;;;7.40;99.90;;;;;;4950813;28;20038;-71
2021/11/09 01:30:41;;;;;;;30.75;8.82;;;7.40;99.80;;;;;;4946556;28;20613;-71
2021/11/09 01:33:06;;;;;;;23.05;8.20;;;7.40;99.90;;;;;;4951286;28;20446;-71
2021/11/09 01:35:32;;;;;;;28.63;8.63;;;7.40;99.90;;;;;;4958115;28;20050;-71
2021/11/09 01:37:58;;;;;;;34.10;8.52;;;7.30;99.90;;;;;;4954120;28;20071;-71
2021/11/09 01:40:24;;;;;;;28.08;8.68;;;7.30;99.90;;;;;;4954135;28;20130;-71
2021/11/09 01:42:51;;;;;;;32.92;9.32;;;7.30;99.90;;;;;;4959872;28;20480;-71
2021/11/09 01:45:18;;;;;;;34.40;8.60;;;7.30;99.90;;;;;;4965991;28;20035;-70
2021/11/09 01:47:45;;;;;;;25.77;8.48;;;7.30;99.90;;;;;;4932105;28;20502;-71
2021/11/09 01:50:14;;;;;;;27.90;9.20;;;7.30;99.90;;;;;;4951113;28;20459;-70
2021/11/09 01:52:40;;;;;;;23.35;9.40;;;7.30;99.90;;;;;;4934656;28;20101;-71
2021/11/09 01:55:10;;;;;;;33.20;9.32;;;7.40;99.90;;;;;;4956749;28;20030;-71
2021/11/09 01:57:36;;;;;;;32.50;9.43;;;7.40;99.90;;;;;;4945245;28;20117;-70
2021/11/09 02:00:08;;;;;;;29.60;9.90;;;7.40;99.90;;;;;;4950700;28;20043;-70
2021/11/09 02:02:33;;;;;;;32.00;9.70;;;7.40;99.90;;;;;;4942717;28;20106;-71
2021/11/09 02:04:59;;;;;;;32.47;10.23;;;7.40;99.90;;;;;;4937205;28;20076;-70
2021/11/09 02:07:24;;;;;;;30.73;9.90;;;7.40;99.90;;;;;;4953242;28;20039;-71
2021/11/09 02:09:50;;;;;;;36.40;10.05;;;7.40;99.90;;;;;;4944351;28;20110;-71
2021/11/09 02:12:16;;;;;;;29.90;10.15;;;7.40;99.90;;;;;;4946379;28;20227;-71
2021/11/09 02:14:41;;;;;;;38.53;10.18;;;7.40;99.90;;;;;;4960041;28;20136;-70
2021/11/09 02:17:08;;;;;;;33.47;9.77;;;7.40;99.90;;;;;;4938152;28;20026;-71
2021/11/09 02:19:34;;;;;;;40.55;10.32;;;7.40;99.90;;;;;;4950318;28;20041;-70
2021/11/09 02:21:59;;;;;;;32.25;10.38;;;7.50;99.90;;;;;;4942424;28;20336;-70
2021/11/09 02:24:25;;;;;;;28.25;10.13;;;7.40;99.90;;;;;;4932229;28;20355;-71
2021/11/09 02:26:50;;;;;;;36.50;10.43;;;7.50;99.90;;;;;;4957798;28;20098;-71
2021/11/09 02:29:16;;;;;;;25.38;10.18;;;7.50;99.90;;;;;;4949814;28;20063;-71
2021/11/09 02:31:41;;;;;;;32.13;10.43;;;7.50;99.90;;;;;;4937930;28;20085;-70
2021/11/09 02:34:07;;;;;;;25.35;10.13;;;7.40;99.90;;;;;;4946251;28;20451;-70
2021/11/09 02:36:33;;;;;;;37.20;10.82;;;7.50;99.90;;;;;;4955495;28;20110;-70
2021/11/09 02:38:58;;;;;;;29.75;10.13;;;7.50;99.90;;;;;;4952770;28;20089;-71
2021/11/09 02:41:24;;;;;;;30.73;10.27;;;7.50;99.90;;;;;;4963002;28;20493;-70
2021/11/09 02:43:51;;;;;;;32.17;10.00;;;7.50;99.90;;;;;;4983878;23;20029;-74
2021/11/09 02:49:01;;;;;;;34.97;10.88;;;7.50;99.90;;;;;;4971877;28;20029;-74
2021/11/09 02:51:34;;;;;;;33.78;10.07;;;7.50;99.90;;;;;;4985535;28;20030;-75
2021/11/09 02:54:23;;;;;;;31.45;10.77;;;7.50;99.90;;;;;;4968793;28;20059;-75
2021/11/09 02:57:00;;;;;;;34.90;10.27;;;7.50;99.90;;;;;;4965166;28;20086;-75
2021/11/09 03:07:23;;;;;;;29.83;9.73;;;7.60;99.90;;;;;;4955560;28;20035;-74
2021/11/09 03:09:57;;;;;;;26.43;10.47;;;7.60;99.90;;;;;;4953630;28;20030;-75
2021/11/09 03:12:28;;;;;;;28.02;10.75;;;7.50;99.90;;;;;;4943206;28;20317;-75
2021/11/09 03:14:54;;;;;;;27.88;10.15;;;7.60;99.90;;;;;;4958680;28;20089;-75
2021/11/09 03:17:22;;;;;;;29.15;11.10;;;7.60;99.90;;;;;;4950350;28;20023;-75
2021/11/09 03:19:54;;;;;;;27.35;10.82;;;7.60;99.90;;;;;;4973935;28;20034;-75
2021/11/09 03:47:11;;;;;;;35.08;12.43;;;7.60;99.90;;;;;;4981450;28;20077;-75
2021/11/09 03:49:38;;;;;;;29.08;12.02;;;7.60;99.90;;;;;;4974574;28;20073;-75
2021/11/09 03:52:11;;;;;;;31.10;12.60;;;7.60;99.90;;;;;;4993354;28;20071;-74
2021/11/09 03:54:38;;;;;;;36.65;12.18;;;7.50;99.90;;;;;;4975765;28;20456;-74
2021/11/09 03:57:10;;;;;;;29.40;11.98;;;7.50;99.90;;;;;;4962650;28;20019;-74
2021/11/09 03:59:58;;;;;;;38.30;12.90;;;7.50;99.90;;;;;;4975865;28;20030;-74
2021/11/09 04:02:47;;;;;;;29.83;13.30;;;7.50;99.90;;;;;;4987064;28;20450;-75
2021/11/09 04:05:15;;;;;;;34.75;13.70;;;7.50;99.90;;;;;;4954201;28;20151;-74
2021/11/09 04:08:27;;;;;;;34.47;14.40;;;7.50;99.90;;;;;;4980466;28;20462;-74
2021/11/09 04:10:45;;;;;;;27.90;13.18;;;7.50;99.90;;;;;;4973553;28;20128;-73
2021/11/09 04:16:07;;;;;;;32.25;13.98;;;7.50;99.90;;;;;;4977971;28;20096;-75
2021/11/09 04:18:43;;;;;;;32.38;13.60;;;7.50;99.90;;;;;;4966363;28;20407;-73
2021/11/09 04:21:17;;;;;;;28.35;13.82;;;7.60;99.90;;;;;;4974541;28;20110;-74
2021/11/09 04:26:40;;;;;;;36.08;14.50;;;7.40;99.90;;;;;;4982333;28;20455;-75
2021/11/09 04:29:29;;;;;;;34.67;14.13;;;7.40;99.90;;;;;;4986212;28;20027;-75
2021/11/09 04:32:23;;;;;;;30.33;13.70;;;7.30;99.90;;;;;;4976740;28;20143;-74
2021/11/09 04:35:30;;;;;;;31.02;12.77;;;7.20;99.90;;;;;;4974955;28;20474;-75
2021/11/09 04:49:45;;;;;;;34.55;14.20;;;7.30;99.90;;;;;;4978757;28;20048;-74
2021/11/09 05:02:48;;;;;;;41.33;14.55;;;7.30;99.90;;;;;;4982525;28;20080;-75
2021/11/09 05:10:43;;;;;;;34.20;14.25;;;7.40;99.90;;;;;;4979237;28;20521;-75
2021/11/09 05:13:09;;;;;;;40.00;14.85;;;7.40;99.90;;;;;;4983931;28;20090;-76
2021/11/09 05:15:34;;;;;;;34.25;14.75;;;7.40;99.90;;;;;;4973461;28;20161;-74
2021/11/09 05:18:00;;;;;;;36.40;14.70;;;7.40;99.90;;;;;;4981247;28;20065;-75
2021/11/09 05:20:26;;;;;;;32.75;14.82;;;7.40;99.90;;;;;;4962466;28;20096;-75
2021/11/09 05:22:52;;;;;;;32.45;14.73;;;7.40;99.90;;;;;;4955462;28;20065;-77
2021/11/09 05:25:19;;;;;;;35.85;14.18;;;7.50;99.90;;;;;;4979653;28;20038;-77
2021/11/09 05:27:46;;;;;;;30.90;13.75;;;7.40;99.90;;;;;;4985582;28;20514;-77
2021/11/09 05:30:12;;;;;;;35.60;14.25;;;7.50;99.90;;;;;;4973854;28;20046;-75
2021/11/09 05:32:38;;;;;;;30.40;13.48;;;7.50;99.90;;;;;;4965293;28;20049;-76
2021/11/09 05:35:05;;;;;;;31.92;14.48;;;7.50;99.90;;;;;;4975301;28;20026;-75
2021/11/09 05:37:37;;;;;;;30.13;13.38;;;7.40;99.90;;;;;;4965967;28;20034;-76
2021/11/09 05:40:05;;;;;;;31.60;14.15;;;7.40;99.90;;;;;;4975555;28;20031;-77
2021/11/09 05:42:30;;;;;;;31.70;13.27;;;7.50;99.90;;;;;;4974755;28;20018;-77
2021/11/09 05:44:57;;;;;;;42.90;14.63;;;7.40;99.90;;;;;;4978007;28;20464;-77
2021/11/09 05:47:23;;;;;;;30.77;13.52;;;7.40;99.90;;;;;;4956487;28;20400;-79
2021/11/09 05:49:48;;;;;;;29.85;13.15;;;7.40;99.90;;;;;;4983077;28;20022;-77
2021/11/09 05:52:14;;;;;;;29.33;13.63;;;7.40;99.90;;;;;;4981152;28;20030;-76
2021/11/09 05:54:40;;;;;;;32.58;14.15;;;7.40;99.90;;;;;;4974071;28;20034;-76
2021/11/09 05:57:06;;;;;;;32.85;12.40;;;7.40;99.90;;;;;;4983566;28;20060;-76
2021/11/09 05:59:31;;;;;;;36.55;12.27;;;7.50;99.90;;;;;;4979373;28;20046;-76
2021/11/09 06:01:57;;;;;;;31.98;13.18;;;7.40;99.90;;;;;;4964745;28;20026;-76
2021/11/09 06:04:24;;;;;;;36.63;12.73;;;7.40;99.90;;;;;;4966671;28;20026;-76
2021/11/09 06:06:49;;;;;;;27.60;12.00;;;7.50;99.90;;;;;;4982449;28;20026;-77
2021/11/09 06:09:15;;;;;;;28.90;12.68;;;7.40;99.90;;;;;;4972154;28;20096;-76
2021/11/09 06:11:40;;;;;;;38.65;12.40;;;7.50;99.90;;;;;;4973505;28;20132;-77
2021/11/09 06:14:07;;;;;;;32.00;12.32;;;7.50;99.90;;;;;;4973781;28;20030;-77
2021/11/09 06:16:33;;;;;;;34.58;11.73;;;7.40;99.90;;;;;;4957127;28;20246;-77
2021/11/09 06:18:59;;;;;;;25.48;11.18;;;7.50;99.90;;;;;;4975694;28;20067;-77
2021/11/09 06:21:24;;;;;;;29.02;11.27;;;7.40;99.90;;;;;;4971809;28;20030;-77
2021/11/09 06:23:50;;;;;;;31.55;10.77;;;7.50;99.90;;;;;;4983172;28;20051;-77
2021/11/09 06:26:16;;;;;;;21.67;10.38;;;7.50;99.90;;;;;;4963422;28;20037;-76
2021/11/09 06:28:42;;;;;;;27.83;11.02;;;7.40;99.90;;;;;;4981220;28;20147;-77
2021/11/09 06:31:08;;;;;;;24.05;10.35;;;7.40;99.90;;;;;;4959837;28;20041;-76
2021/11/09 06:33:34;;;;;;;27.13;10.63;;;7.30;99.90;;;;;;4988011;28;20372;-76
2021/11/09 06:36:00;;;;;;;25.45;10.55;;;7.30;99.90;;;;;;4979219;28;20511;-77
2021/11/09 06:38:25;;;;;;;26.65;10.50;;;7.20;99.90;;;;;;4982364;28;20100;-76
2021/11/09 06:40:51;;;;;;;31.00;9.75;;;7.10;99.90;;;;;;4981833;28;20044;-76
2021/11/09 06:43:17;;;;;;;31.15;10.48;;;7.00;99.90;;;;;;4977376;28;20069;-78
2021/11/09 06:45:43;;;;;;;27.67;10.48;;;7.00;99.90;;;;;;4979509;28;20061;-77
2021/11/09 06:48:10;;;;;;;30.10;11.30;;;6.90;99.90;;;;;;4977513;28;20272;-76
2021/11/09 06:50:35;;;;;;;28.10;11.40;;;6.90;99.90;;;;;;4973020;28;20049;-75
2021/11/09 06:53:02;;;;;;;32.15;11.05;;;6.80;99.90;;;;;;4983350;28;20372;-76
2021/11/09 06:55:27;;;;;;;35.53;11.50;;;6.80;99.90;;;;;;4965171;28;20030;-76
2021/11/09 06:57:53;;;;;;;37.45;11.80;;;6.80;99.90;;;;;;4982696;28;20105;-75
2021/11/09 07:00:21;;;;;;;40.15;12.45;;;6.70;99.90;;;;;;4954563;28;20026;-74
2021/11/09 07:02:46;;;;;;;28.88;10.57;;;6.70;99.90;;;;;;4977655;28;20172;-76
2021/11/09 07:05:12;;;;;;;36.00;11.50;;;6.60;99.90;;;;;;4976468;28;20030;-76
2021/11/09 07:07:40;;;;;;;42.65;12.05;;;6.70;99.90;;;;;;4959935;28;20113;-76
2021/11/09 07:10:07;;;;;;;40.35;12.07;;;6.70;99.90;;;;;;4982400;28;20018;-75
2021/11/09 07:12:34;;;;;;;43.50;13.13;;;6.70;99.90;;;;;;4979027;28;20022;-76
2021/11/09 07:15:00;;;;;;;47.38;13.13;;;6.70;99.90;;;;;;4960258;28;20042;-74
2021/11/09 07:17:25;;;;;;;52.63;13.60;;;6.70;99.90;;;;;;4961223;28;20027;-74
2021/11/09 07:19:52;;;;;;;51.17;12.65;;;6.70;99.90;;;;;;4963803;28;20070;-75
2021/11/09 07:22:19;;;;;;;50.67;13.65;;;6.70;99.90;;;;;;4975436;28;20038;-75
2021/11/09 07:24:46;;;;;;;46.20;13.63;;;6.70;99.90;;;;;;4975911;28;20030;-75
2021/11/09 07:27:11;;;;;;;54.35;14.32;;;6.80;99.90;;;;;;4974966;28;20407;-76
2021/11/09 07:29:37;;;;;;;54.92;14.32;;;6.90;99.90;;;;;;4978556;28;20039;-75
2021/11/09 07:32:05;;;;;;;55.72;14.02;;;7.00;99.90;;;;;;4980023;28;20031;-75
2021/11/09 07:34:31;;;;;;;57.70;13.95;;;7.00;99.90;;;;;;4921360;28;20065;-75
2021/11/09 07:36:56;;;;;;;49.90;13.77;;;7.00;99.90;;;;;;4960249;28;20042;-74
2021/11/09 07:39:22;;;;;;;58.33;14.90;;;7.00;99.90;;;;;;4952697;28;20026;-74
2021/11/09 07:41:50;;;;;;;56.22;14.25;;;7.00;99.90;;;;;;4976173;28;20027;-73
2021/11/09 07:44:15;;;;;;;54.75;15.07;;;7.10;99.90;;;;;;4976094;28;20042;-75
2021/11/09 07:46:41;;;;;;;49.42;14.32;;;7.10;99.90;;;;;;4970229;28;21077;-73
2021/11/09 07:49:06;;;;;;;54.97;15.40;;;7.10;99.90;;;;;;4975305;28;20574;-74
2021/11/09 07:51:32;;;;;;;58.60;15.13;;;7.10;99.90;;;;;;4973924;28;20125;-76
2021/11/09 07:54:00;;;;;;;57.65;14.50;;;7.00;99.90;;;;;;4960319;28;20475;-75
2021/11/09 07:56:31;;;;;;;48.88;14.63;;;7.10;99.90;;;;;;4971253;28;20015;-75
2021/11/09 08:01:48;;;;;;;66.93;15.85;;;7.20;99.90;;;;;;4973747;28;20041;-73
2021/11/09 08:04:22;;;;;;;68.00;16.23;;;7.20;99.90;;;;;;4953768;28;20126;-74
2021/11/09 08:06:54;;;;;;;68.90;18.13;;;7.30;99.90;;;;;;4975970;28;20039;-75
2021/11/09 08:09:27;;;;;;;64.60;17.52;;;7.30;99.90;;;;;;4975391;28;20022;-74
2021/11/09 08:11:53;;;;;;;66.75;18.20;;;7.40;99.90;;;;;;4971632;28;20034;-76
2021/11/09 08:14:19;;;;;;;73.85;18.38;;;7.50;99.90;;;;;;4978021;28;20460;-75
2021/11/09 08:16:47;;;;;;;68.72;21.42;;;7.60;99.90;;;;;;4956345;28;20082;-75
2021/11/09 08:19:13;;;;;;;78.30;21.75;;;7.60;99.90;;;;;;4977222;28;20108;-75
2021/11/09 08:21:39;;;;;;;63.88;19.10;;;7.70;99.90;;;;;;4956703;28;20030;-76
2021/11/09 08:24:07;;;;;;;72.13;21.95;;;7.70;99.90;;;;;;4966527;28;20023;-76
2021/11/09 08:26:33;;;;;;;74.13;22.77;;;7.70;99.90;;;;;;4958773;28;20039;-75
2021/11/09 08:29:03;;;;;;;71.10;21.30;;;7.80;99.90;;;;;;4975377;28;20441;-75
2021/11/09 08:31:29;;;;;;;63.88;23.48;;;7.80;99.90;;;;;;4977941;28;20104;-74
2021/11/09 08:33:55;;;;;;;73.45;23.02;;;7.90;99.90;;;;;;4966392;28;20019;-75
2021/11/09 08:36:23;;;;;;;71.20;24.30;;;8.00;99.80;;;;;;4982707;28;20022;-76
2021/11/09 08:38:50;;;;;;;70.57;24.33;;;8.00;99.70;;;;;;4961289;28;20774;-77
2021/11/09 08:41:18;;;;;;;69.28;25.13;;;8.10;99.50;;;;;;4975928;28;20038;-74
2021/11/09 08:44:04;;;;;;;60.63;24.88;;;8.10;99.40;;;;;;4963255;28;20041;-73
2021/11/09 08:46:41;;;;;;;63.00;23.27;;;8.10;98.90;;;;;;4987965;23;20134;-86
2021/11/09 08:49:10;;;;;;;58.38;24.23;;;8.20;98.80;;;;;;4955466;28;20033;-86
2021/11/09 08:51:36;;;;;;;65.35;23.92;;;8.30;98.70;;;;;;4958789;28;20038;-89
2021/11/09 08:54:15;;;;;;;50.55;21.27;;;8.30;98.30;;;;;;4989863;28;20018;-92
2021/11/09 09:04:47;;;;;;;39.20;19.45;;;8.60;97.20;;;;;;4961577;28;20059;-88
2021/11/09 09:07:35;;;;;;;50.45;20.70;;;8.60;96.40;;;;;;4945923;28;20053;-88
2021/11/09 09:10:32;;;;;;;41.78;18.55;;;8.70;96.50;;;;;;4946618;28;20030;-87
2021/11/09 09:13:03;;;;;;;37.83;18.15;;;8.80;96.30;;;;;;4937391;28;20047;-89
2021/11/09 09:16:07;;;;;;;34.53;18.30;;;8.90;96.10;;;;;;4961800;28;20121;-88
2021/11/09 09:18:33;;;;;;;32.50;18.05;;;9.00;95.80;;;;;;4951165;28;20105;-86
2021/11/09 09:21:25;;;;;;;32.60;17.65;;;9.00;95.00;;;;;;4948199;28;20163;-88
2021/11/09 09:23:55;;;;;;;31.15;17.92;;;9.10;95.00;;;;;;4944438;28;20108;-88
2021/11/09 09:29:33;;;;;;;33.13;17.38;;;9.30;93.80;;;;;;4955205;28;20497;-87
2021/11/09 09:56:54;;;;;;;23.88;11.63;;;10.10;89.60;;;;;;4968137;28;20034;-88
2021/11/09 09:59:27;;;;;;;28.95;12.23;;;10.10;88.00;;;;;;4953205;28;20109;-87
2021/11/09 10:02:15;;;;;;;29.85;11.73;;;10.10;88.60;;;;;;4951068;28;20085;-88
2021/11/09 10:04:43;;;;;;;26.92;11.05;;;10.10;87.50;;;;;;4966901;28;20043;-87
2021/11/09 10:07:10;;;;;;;20.65;10.45;;;10.30;87.30;;;;;;4968374;28;20038;-87
2021/11/09 10:09:44;;;;;;;24.13;10.52;;;10.40;86.00;;;;;;4948260;28;20027;-88
2021/11/09 10:12:15;;;;;;;24.42;10.40;;;10.20;85.70;;;;;;4949899;28;20030;-88
2021/11/09 10:14:41;;;;;;;21.20;10.48;;;10.30;86.20;;;;;;4961009;28;20027;-87
2021/11/09 10:17:20;;;;;;;24.48;10.05;;;10.40;86.30;;;;;;4966239;28;20093;-87
2021/11/09 10:19:46;;;;;;;29.75;9.40;;;10.40;85.30;;;;;;4961370;28;20026;-85
2021/11/09 10:22:32;;;;;;;28.92;9.45;;;10.40;83.30;;;;;;4970259;28;20406;-88
2021/11/09 10:25:07;;;;;;;17.05;7.80;;;10.40;83.90;;;;;;4948947;28;20058;-87
2021/11/09 10:27:35;;;;;;;18.80;7.97;;;10.40;82.00;;;;;;4951503;28;20038;-88
2021/11/09 10:30:21;;;;;;;21.42;7.80;;;10.60;83.70;;;;;;4967241;28;20034;-87
2021/11/09 10:32:47;;;;;;;25.42;8.68;;;10.70;82.00;;;;;;4951070;28;20110;-88
2021/11/09 10:35:21;;;;;;;24.83;8.48;;;10.60;81.60;;;;;;4950135;28;20034;-88
2021/11/09 10:38:06;;;;;;;19.75;8.45;;;10.80;82.00;;;;;;4967625;28;20148;-87
2021/11/09 10:40:42;;;;;;;16.20;6.55;;;10.80;82.20;;;;;;4946587;28;20038;-88
2021/11/09 10:43:10;;;;;;;20.05;7.45;;;10.80;81.50;;;;;;4964231;28;20134;-88
2021/11/09 10:45:38;;;;;;;19.65;7.75;;;10.80;80.20;;;;;;4962312;28;20039;-88
2021/11/09 10:48:20;;;;;;;17.95;7.45;;;10.80;82.30;;;;;;4952019;28;20030;-87
2021/11/09 10:50:55;;;;;;;19.50;7.07;;;10.90;81.90;;;;;;4951542;28;20364;-89
2021/11/09 11:04:36;;;;;;;16.95;6.03;;;11.20;77.80;;;;;;4978836;28;20122;-88
2021/11/09 11:07:22;;;;;;;15.90;5.35;;;11.20;77.10;;;;;;4956795;28;20069;-88
2021/11/09 11:10:10;;;;;;;13.20;5.63;;;11.30;78.10;;;;;;4964809;28;20575;-89
2021/11/09 11:12:36;;;;;;;13.05;4.93;;;11.30;76.30;;;;;;4954829;28;20077;-87
2021/11/09 11:15:10;;;;;;;15.82;5.15;;;11.40;76.70;;;;;;4954108;28;20043;-88
2021/11/09 11:17:48;;;;;;;15.15;5.05;;;11.30;76.20;;;;;;4949150;28;20097;-88
2021/11/09 11:20:16;;;;;;;14.88;5.43;;;11.50;76.10;;;;;;4947553;28;20058;-88
2021/11/09 11:22:44;;;;;;;16.80;4.70;;;11.50;75.50;;;;;;4950657;28;20110;-86
2021/11/09 11:25:26;;;;;;;19.23;5.35;;;11.60;75.70;;;;;;4970203;28;20483;-87
2021/11/09 11:27:59;;;;;;;14.77;4.97;;;11.60;75.10;;;;;;4952764;28;20039;-87
2021/11/09 11:30:24;;;;;;;15.85;4.47;;;11.60;75.00;;;;;;4963710;23;20040;-65
2021/11/09 11:32:50;;;;;;;11.85;4.60;;;11.90;74.80;;;;;;4965946;28;20106;-64
2021/11/09 11:35:17;;;;;;;10.43;4.53;;;12.00;74.50;;;;;;4956172;28;20026;-65
2021/11/09 11:37:42;;;;;;;18.38;5.13;;;11.90;71.40;;;;;;4966742;28;20077;-65
2021/11/09 11:40:09;;;;;;;17.80;5.10;;;11.90;72.70;;;;;;4948703;28;20027;-64
2021/11/09 11:42:39;;;;;;;12.30;4.18;;;11.90;72.30;;;;;;4964124;28;20291;-65
2021/11/09 11:45:06;;;;;;;13.00;4.35;;;11.80;71.80;;;;;;4964996;28;20069;-67
2021/11/09 11:47:32;;;;;;;12.75;4.50;;;12.10;72.70;;;;;;4964540;28;20112;-65
2021/11/09 11:50:05;;;;;;;11.90;4.70;;;12.10;72.00;;;;;;4968808;28;20034;-66
2021/11/09 11:52:43;;;;;;;16.30;4.78;;;12.20;71.00;;;;;;4968563;28;20494;-66
2021/11/09 11:55:21;;;;;;;17.73;5.00;;;12.20;71.20;;;;;;4959554;28;20039;-66
2021/11/09 11:57:48;;;;;;;11.13;3.97;;;12.10;69.90;;;;;;4963290;28;20030;-65
2021/11/09 12:00:28;;;;;;;15.35;4.18;;;12.00;69.30;;;;;;4964944;28;20031;-66
2021/11/09 12:02:54;;;;;;;13.23;4.22;;;12.30;70.80;;;;;;4964414;28;20549;-65
2021/11/09 12:05:42;;;;;;;15.18;4.15;;;12.20;69.50;;;;;;4967240;28;20109;-64
2021/11/09 12:08:10;;;;;;;9.68;3.92;;;12.20;68.60;;;;;;4960551;28;20030;-66
2021/11/09 12:10:53;;;;;;;11.50;3.70;;;12.50;70.00;;;;;;4964820;28;20498;-65
2021/11/09 12:13:21;;;;;;;13.40;4.50;;;12.60;70.20;;;;;;4967696;28;20038;-66
2021/11/09 12:16:00;;;;;;;13.35;4.47;;;12.60;69.40;;;;;;4964041;28;20041;-65
2021/11/09 12:18:31;;;;;;;10.63;3.97;;;12.70;68.80;;;;;;4968653;28;20126;-67
2021/11/09 12:21:20;;;;;;;;;;;12.80;68.60;;;;;;4961318;28;20030;-66
2021/11/09 12:24:18;;;;;;;11.27;3.78;;;13.00;68.90;;;;;;4949813;28;19914;-66
2021/11/09 12:26:55;;;;;;;12.68;3.83;;;13.30;69.50;;;;;;4973211;28;20083;-69
2021/11/09 12:29:36;;;;;;;12.15;3.40;;;13.10;67.10;;;;;;4958143;28;20407;-65
2021/11/09 12:32:39;;;;;;;12.18;3.83;;;13.00;66.30;;;;;;4967912;28;20030;-65
2021/11/09 12:35:24;;;;;;;14.30;3.50;;;12.80;66.40;;;;;;4918129;29;20118;-66
2021/11/09 12:38:02;;;;;;;9.70;3.38;;;12.80;65.90;;;;;;4967190;28;20035;-65
2021/11/09 12:40:43;;;;;;;10.13;3.28;;;13.00;66.40;;;;;;4968707;28;20038;-64
2021/11/09 12:43:43;;;;;;;10.35;3.50;;;13.00;65.90;;;;;;4963224;28;20029;-64
2021/11/09 12:46:28;;;;;;;9.05;2.97;;;13.20;66.70;;;;;;4956143;28;20035;-65
2021/11/09 12:48:58;;;;;;;8.55;2.88;;;13.10;64.30;;;;;;4980031;28;20275;-64
2021/11/09 12:51:27;;;;;;;9.32;3.50;;;13.00;64.20;;;;;;4949968;28;20023;-65
2021/11/09 12:53:55;;;;;;;15.60;3.78;;;12.90;64.60;;;;;;4961765;28;20115;-65
2021/11/09 12:56:36;;;;;;;11.90;3.20;;;13.00;65.10;;;;;;4962548;28;20034;-64
2021/11/09 12:59:07;;;;;;;;;;;13.10;65.30;;;;;;4959294;28;20018;-64
2021/11/09 13:01:51;;;;;;;8.32;3.10;;;13.30;65.30;;;;;;4962133;28;20293;-64
2021/11/09 13:09:49;;;;;;;11.15;3.13;;;13.50;64.90;;;;;;4969478;28;20050;-65
2021/11/09 13:12:25;;;;;;;11.00;3.15;;;13.30;64.10;;;;;;4960218;28;20659;-64
2021/11/09 13:15:07;;;;;;;9.48;3.03;;;13.20;63.20;;;;;;4969008;28;20121;-65
2021/11/09 13:17:48;;;;;;;10.00;3.15;;;13.30;62.80;;;;;;4959807;28;20024;-64
2021/11/09 13:23:05;;;;;;;;;;;13.20;63.40;;;;;;4964725;28;20362;-64
2021/11/09 13:25:32;;;;;;;7.47;2.95;;;13.50;62.70;;;;;;4960483;28;19953;-65
2021/11/09 13:28:01;;;;;;;8.27;2.95;;;13.30;63.00;;;;;;4961464;28;20105;-65
2021/11/09 13:30:27;;;;;;;11.85;3.08;;;13.50;62.90;;;;;;4964464;28;20073;-65
2021/11/09 13:32:56;;;;;;;14.35;3.30;;;13.60;62.10;;;;;;4970053;28;20118;-64
2021/11/09 13:35:26;;;;;;;10.23;2.83;;;13.50;61.70;;;;;;4956067;28;20022;-65
2021/11/09 13:38:16;;;;;;;13.52;3.10;;;13.40;62.70;;;;;;4956282;28;20483;-64
2021/11/09 13:40:45;;;;;;;11.00;2.95;;;13.50;62.30;;;;;;4968629;28;20103;-65
2021/11/09 13:43:14;;;;;;;9.10;2.90;;;13.80;63.00;;;;;;4972918;28;20027;-65
2021/11/09 13:45:40;;;;;;;9.88;2.80;;;13.90;63.50;;;;;;4961176;28;20034;-65
2021/11/09 13:48:14;;;;;;;7.47;2.97;;;13.80;61.10;;;;;;4967070;28;20450;-65
2021/11/09 13:50:41;;;;;;;8.95;2.67;;;13.70;62.20;;;;;;4968954;28;20030;-64
2021/11/09 13:53:07;;;;;;;8.73;2.63;;;13.60;62.60;;;;;;4949919;28;20491;-65
2021/11/09 13:55:36;;;;;;;9.57;2.20;;;13.30;63.30;;;;;;4966348;28;20031;-65
2021/11/09 13:58:02;;;;;;;8.05;2.65;;;13.30;62.80;;;;;;4961143;28;20094;-64
2021/11/09 14:00:34;;;;;;;8.75;2.97;;;13.30;62.90;;;;;;4962700;28;20138;-64
2021/11/09 14:03:18;;;;;;;7.78;2.50;;;13.40;63.70;;;;;;4965752;28;20495;-67
2021/11/09 14:11:16;;;;;;;7.97;2.78;;;13.50;62.00;;;;;;4970151;28;20125;-64
2021/11/09 14:14:14;;;;;;;8.43;2.75;;;12.80;63.50;;;;;;4973007;28;20091;-65
2021/11/09 14:16:51;;;;;;;9.00;2.90;;;12.60;65.50;;;;;;4961024;28;20038;-63
2021/11/09 14:19:33;;;;;;;12.43;2.70;;;12.50;65.30;;;;;;4962905;28;20022;-64
2021/11/09 14:22:09;;;;;;;10.15;2.65;;;12.40;67.20;;;;;;4963958;28;20042;-65
2021/11/09 14:24:34;;;;;;;10.43;3.00;;;12.30;67.40;;;;;;4959295;28;20039;-65
2021/11/09 14:27:25;;;;;;;9.40;2.78;;;12.00;68.40;;;;;;4956880;28;20031;-65
2021/11/09 14:29:56;;;;;;;8.38;2.90;;;11.90;69.70;;;;;;4958841;28;20026;-65
2021/11/09 14:32:32;;;;;;;11.63;3.55;;;11.70;70.40;;;;;;4951845;28;20054;-64
2021/11/09 14:35:00;;;;;;;10.15;3.40;;;11.50;71.10;;;;;;4960811;28;20019;-64
2021/11/09 14:37:30;;;;;;;10.90;3.13;;;11.30;71.60;;;;;;4968580;28;20296;-65
2021/11/09 14:40:11;;;;;;;10.70;3.05;;;11.20;73.00;;;;;;4970750;28;20046;-65
2021/11/09 14:45:43;;;;;;;11.18;3.42;;;11.00;73.10;;;;;;5010734;23;20367;-75
2021/11/09 14:48:12;;;;;;;;;;;10.90;73.70;;;;;;4971356;28;20036;-75
2021/11/09 14:53:58;;;;;;;8.95;3.20;;;10.60;74.60;;;;;;4976575;28;20049;-75
2021/11/09 14:56:32;;;;;;;10.13;3.53;;;10.50;75.50;;;;;;4962607;28;20035;-75
2021/11/09 14:59:00;;;;;;;13.15;3.05;;;10.40;76.00;;;;;;4962427;28;20055;-75
2021/11/09 15:01:41;;;;;;;15.98;4.28;;;10.30;76.50;;;;;;4962601;28;20034;-75
2021/11/09 15:07:16;;;;;;;10.55;3.80;;;10.20;76.40;;;;;;4937803;28;19969;-74
2021/11/09 15:12:52;;;;;;;12.82;3.63;;;10.10;77.10;;;;;;4957934;28;20033;-74
2021/11/09 15:29:14;;;;;;;10.60;3.45;;;9.60;78.40;;;;;;4959105;28;20348;-74
2021/11/09 15:31:52;;;;;;;11.23;3.13;;;9.50;78.90;;;;;;4963987;28;20227;-75
2021/11/09 15:34:46;;;;;;;12.10;3.28;;;9.50;78.60;;;;;;4964397;28;20098;-75
2021/11/09 15:37:23;;;;;;;12.32;3.90;;;9.30;79.00;;;;;;4966810;28;20444;-75
2021/11/09 15:39:49;;;;;;;16.52;3.90;;;9.40;78.80;;;;;;4966766;28;20440;-74
2021/11/09 15:42:16;;;;;;;11.05;3.25;;;9.30;79.20;;;;;;4968569;28;20033;-74